sensor_id;sensor_type;location;lat;lon;timestamp;temperature;humidity
10828;DHT22;5467;59.334;13.512;2022-12-22T00:00:31;5.20;99.90
10828;DHT22;5467;59.334;13.512;2022-12-22T00:03:16;5.10;99.90
10828;DHT22;5467;59.334;13.512;2022-12-22T00:06:01;5.10;99.90
10828;DHT22;5467;59.334;13.512;2022-12-22T00:08:45;5.10;99.90
10828;DHT22;5467;59.334;13.512;2022-12-22T00:11:30;5.10;99.90
10828;DHT22;5467;59.334;13.512;2022-12-22T00:14:14;5.10;99.90
10828;DHT22;5467;59.334;13.512;2022-12-22T00:17:01;5.10;99.90
10828;DHT22;5467;59.334;13.512;2022-12-22T00:19:45;5.10;99.90
10828;DHT22;5467;59.334;13.512;2022-12-22T00:22:30;5.10;99.90
10828;DHT22;5467;59.334;13.512;2022-12-22T00:25:17;5.10;99.90
10828;DHT22;5467;59.334;13.512;2022-12-22T00:28:02;5.10;99.90
10828;DHT22;5467;59.334;13.512;2022-12-22T00:30:54;5.10;99.90
10828;DHT22;5467;59.334;13.512;2022-12-22T00:33:40;5.20;99.90
10828;DHT22;5467;59.334;13.512;2022-12-22T00:36:25;5.10;99.90
10828;DHT22;5467;59.334;13.512;2022-12-22T00:39:11;5.20;99.90
10828;DHT22;5467;59.334;13.512;2022-12-22T00:41:56;5.10;99.90
10828;DHT22;5467;59.334;13.512;2022-12-22T00:44:41;5.20;99.90
10828;DHT22;5467;59.334;13.512;2022-12-22T00:47:28;5.20;99.90
10828;DHT22;5467;59.334;13.512;2022-12-22T00:50:15;5.20;99.90
10828;DHT22;5467;59.334;13.512;2022-12-22T00:52:59;5.20;99.90
10828;DHT22;5467;59.334;13.512;2022-12-22T00:55:45;5.20;99.90
10828;DHT22;5467;59.334;13.512;2022-12-22T00:58:29;5.20;99.90
10828;DHT22;5467;59.334;13.512;2022-12-22T01:01:14;5.20;99.90
10828;DHT22;5467;59.334;13.512;2022-12-22T01:03:58;5.10;99.90
10828;DHT22;5467;59.334;13.512;2022-12-22T01:06:44;5.20;99.90
10828;DHT22;5467;59.334;13.512;2022-12-22T01:09:29;5.20;99.90
10828;DHT22;5467;59.334;13.512;2022-12-22T01:12:16;5.20;99.90
10828;DHT22;5467;59.334;13.512;2022-12-22T01:15:04;5.20;99.90
10828;DHT22;5467;59.334;13.512;2022-12-22T01:17:52;5.20;99.90
10828;DHT22;5467;59.334;13.512;2022-12-22T01:20:37;5.20;99.90
10828;DHT22;5467;59.334;13.512;2022-12-22T01:23:23;5.10;99.90
10828;DHT22;5467;59.334;13.512;2022-12-22T01:26:09;5.10;99.90
10828;DHT22;5467;59.334;13.512;2022-12-22T01:28:54;5.10;99.90
10828;DHT22;5467;59.334;13.512;2022-12-22T01:31:38;5.10;99.90
10828;DHT22;5467;59.334;13.512;2022-12-22T01:34:23;5.10;99.90
10828;DHT22;5467;59.334;13.512;2022-12-22T01:37:07;5.20;99.90
10828;DHT22;5467;59.334;13.512;2022-12-22T01:39:53;5.20;99.90
10828;DHT22;5467;59.334;13.512;2022-12-22T01:42:38;5.20;99.90
10828;DHT22;5467;59.334;13.512;2022-12-22T01:45:24;5.20;99.90
10828;DHT22;5467;59.334;13.512;2022-12-22T01:48:10;5.20;99.90
10828;DHT22;5467;59.334;13.512;2022-12-22T01:50:55;5.20;99.90
10828;DHT22;5467;59.334;13.512;2022-12-22T01:53:41;5.20;99.90
10828;DHT22;5467;59.334;13.512;2022-12-22T01:56:27;5.20;99.90
10828;DHT22;5467;59.334;13.512;2022-12-22T01:59:12;5.20;99.90
10828;DHT22;5467;59.334;13.512;2022-12-22T02:01:57;5.20;99.90
10828;DHT22;5467;59.334;13.512;2022-12-22T02:04:44;5.20;99.90
10828;DHT22;5467;59.334;13.512;2022-12-22T02:07:47;5.20;99.90
10828;DHT22;5467;59.334;13.512;2022-12-22T02:10:49;5.20;99.90
10828;DHT22;5467;59.334;13.512;2022-12-22T02:13:44;5.20;99.90
10828;DHT22;5467;59.334;13.512;2022-12-22T02:16:38;5.20;99.90
10828;DHT22;5467;59.334;13.512;2022-12-22T02:19:40;5.20;99.90
10828;DHT22;5467;59.334;13.512;2022-12-22T02:22:33;5.30;99.90
10828;DHT22;5467;59.334;13.512;2022-12-22T02:25:24;5.20;99.90
10828;DHT22;5467;59.334;13.512;2022-12-22T02:28:11;5.30;99.90
10828;DHT22;5467;59.334;13.512;2022-12-22T02:30:57;5.30;99.90
10828;DHT22;5467;59.334;13.512;2022-12-22T02:33:41;5.20;99.90
10828;DHT22;5467;59.334;13.512;2022-12-22T02:36:32;5.30;99.90
10828;DHT22;5467;59.334;13.512;2022-12-22T02:39:29;5.30;99.90
10828;DHT22;5467;59.334;13.512;2022-12-22T02:42:25;5.30;99.90
10828;DHT22;5467;59.334;13.512;2022-12-22T02:45:22;5.30;99.90
10828;DHT22;5467;59.334;13.512;2022-12-22T02:48:12;5.30;99.90
10828;DHT22;5467;59.334;13.512;2022-12-22T02:51:03;5.30;99.90
10828;DHT22;5467;59.334;13.512;2022-12-22T02:53:50;5.40;99.90
10828;DHT22;5467;59.334;13.512;2022-12-22T02:56:36;5.40;99.90
10828;DHT22;5467;59.334;13.512;2022-12-22T02:59:21;5.40;99.90
10828;DHT22;5467;59.334;13.512;2022-12-22T03:02:06;5.30;99.90
10828;DHT22;5467;59.334;13.512;2022-12-22T03:04:51;5.30;99.90
10828;DHT22;5467;59.334;13.512;2022-12-22T03:07:35;5.30;99.90
10828;DHT22;5467;59.334;13.512;2022-12-22T03:10:20;5.30;99.90
10828;DHT22;5467;59.334;13.512;2022-12-22T03:13:05;5.30;99.90
10828;DHT22;5467;59.334;13.512;2022-12-22T03:15:50;5.30;99.90
10828;DHT22;5467;59.334;13.512;2022-12-22T03:18:36;5.30;99.90
10828;DHT22;5467;59.334;13.512;2022-12-22T03:21:22;5.30;99.90
10828;DHT22;5467;59.334;13.512;2022-12-22T03:24:06;5.30;99.90
10828;DHT22;5467;59.334;13.512;2022-12-22T03:26:51;5.30;99.90
10828;DHT22;5467;59.334;13.512;2022-12-22T03:29:18;5.30;99.90
10828;DHT22;5467;59.334;13.512;2022-12-22T03:31:45;5.20;99.90
10828;DHT22;5467;59.334;13.512;2022-12-22T03:34:13;5.20;99.90
10828;DHT22;5467;59.334;13.512;2022-12-22T03:36:41;5.20;99.90
10828;DHT22;5467;59.334;13.512;2022-12-22T03:39:08;5.10;99.90
10828;DHT22;5467;59.334;13.512;2022-12-22T03:41:35;5.10;99.90
10828;DHT22;5467;59.334;13.512;2022-12-22T03:44:20;5.10;99.90
10828;DHT22;5467;59.334;13.512;2022-12-22T03:47:04;5.10;99.90
10828;DHT22;5467;59.334;13.512;2022-12-22T03:49:33;5.10;99.90
10828;DHT22;5467;59.334;13.512;2022-12-22T03:52:00;5.00;99.90
10828;DHT22;5467;59.334;13.512;2022-12-22T03:54:27;5.10;99.90
10828;DHT22;5467;59.334;13.512;2022-12-22T03:56:54;5.10;99.90
10828;DHT22;5467;59.334;13.512;2022-12-22T03:59:21;5.10;99.90
10828;DHT22;5467;59.334;13.512;2022-12-22T04:01:50;5.00;99.90
10828;DHT22;5467;59.334;13.512;2022-12-22T04:04:22;5.00;99.90
10828;DHT22;5467;59.334;13.512;2022-12-22T04:06:51;4.90;99.90
10828;DHT22;5467;59.334;13.512;2022-12-22T04:09:18;4.90;99.90
10828;DHT22;5467;59.334;13.512;2022-12-22T04:11:46;4.90;99.90
10828;DHT22;5467;59.334;13.512;2022-12-22T04:14:31;4.80;99.90
10828;DHT22;5467;59.334;13.512;2022-12-22T04:16:58;4.90;99.90
10828;DHT22;5467;59.334;13.512;2022-12-22T04:19:25;4.90;99.90
10828;DHT22;5467;59.334;13.512;2022-12-22T04:21:54;4.90;99.90
10828;DHT22;5467;59.334;13.512;2022-12-22T04:24:21;5.00;99.90
10828;DHT22;5467;59.334;13.512;2022-12-22T04:26:49;5.00;99.90
10828;DHT22;5467;59.334;13.512;2022-12-22T04:29:16;5.00;99.90
10828;DHT22;5467;59.334;13.512;2022-12-22T04:31:43;5.10;99.90
10828;DHT22;5467;59.334;13.512;2022-12-22T04:34:10;5.10;99.90
10828;DHT22;5467;59.334;13.512;2022-12-22T04:36:38;5.10;99.90
10828;DHT22;5467;59.334;13.512;2022-12-22T04:39:06;5.10;99.90
10828;DHT22;5467;59.334;13.512;2022-12-22T04:41:33;5.10;99.90
10828;DHT22;5467;59.334;13.512;2022-12-22T04:44:00;5.00;99.90
10828;DHT22;5467;59.334;13.512;2022-12-22T04:46:28;5.00;99.90
10828;DHT22;5467;59.334;13.512;2022-12-22T04:48:55;4.90;99.90
10828;DHT22;5467;59.334;13.512;2022-12-22T04:51:22;4.90;99.90
10828;DHT22;5467;59.334;13.512;2022-12-22T04:53:49;4.90;99.90
10828;DHT22;5467;59.334;13.512;2022-12-22T04:56:17;4.90;99.90
10828;DHT22;5467;59.334;13.512;2022-12-22T04:58:44;4.90;99.90
10828;DHT22;5467;59.334;13.512;2022-12-22T05:01:13;4.90;99.90
10828;DHT22;5467;59.334;13.512;2022-12-22T05:03:41;5.00;99.90
10828;DHT22;5467;59.334;13.512;2022-12-22T05:06:08;5.00;99.90
10828;DHT22;5467;59.334;13.512;2022-12-22T05:08:36;5.10;99.90
10828;DHT22;5467;59.334;13.512;2022-12-22T05:11:03;5.10;99.90
10828;DHT22;5467;59.334;13.512;2022-12-22T05:13:32;5.20;99.90
10828;DHT22;5467;59.334;13.512;2022-12-22T05:16:03;5.20;99.90
10828;DHT22;5467;59.334;13.512;2022-12-22T05:18:31;5.20;99.90
10828;DHT22;5467;59.334;13.512;2022-12-22T05:21:01;5.20;99.90
10828;DHT22;5467;59.334;13.512;2022-12-22T05:23:29;5.30;99.90
10828;DHT22;5467;59.334;13.512;2022-12-22T05:25:56;5.20;99.90
10828;DHT22;5467;59.334;13.512;2022-12-22T05:28:23;5.30;99.90
10828;DHT22;5467;59.334;13.512;2022-12-22T05:30:52;5.30;99.90
10828;DHT22;5467;59.334;13.512;2022-12-22T05:33:20;5.30;99.90
10828;DHT22;5467;59.334;13.512;2022-12-22T05:35:47;5.30;99.90
10828;DHT22;5467;59.334;13.512;2022-12-22T05:38:14;5.30;99.90
10828;DHT22;5467;59.334;13.512;2022-12-22T05:40:41;5.30;99.90
10828;DHT22;5467;59.334;13.512;2022-12-22T05:43:08;5.30;99.90
10828;DHT22;5467;59.334;13.512;2022-12-22T05:45:35;5.30;99.90
10828;DHT22;5467;59.334;13.512;2022-12-22T05:48:05;5.30;99.90
10828;DHT22;5467;59.334;13.512;2022-12-22T05:50:32;5.30;99.90
10828;DHT22;5467;59.334;13.512;2022-12-22T05:52:59;5.20;99.90
10828;DHT22;5467;59.334;13.512;2022-12-22T05:55:26;5.20;99.90
10828;DHT22;5467;59.334;13.512;2022-12-22T05:57:53;5.20;99.90
10828;DHT22;5467;59.334;13.512;2022-12-22T06:00:22;5.20;99.90
10828;DHT22;5467;59.334;13.512;2022-12-22T06:02:49;5.20;99.90
10828;DHT22;5467;59.334;13.512;2022-12-22T06:05:18;5.20;99.90
10828;DHT22;5467;59.334;13.512;2022-12-22T06:07:45;5.30;99.90
10828;DHT22;5467;59.334;13.512;2022-12-22T06:10:13;5.30;99.90
10828;DHT22;5467;59.334;13.512;2022-12-22T06:12:41;5.30;99.90
10828;DHT22;5467;59.334;13.512;2022-12-22T06:15:10;5.30;99.90
10828;DHT22;5467;59.334;13.512;2022-12-22T06:17:38;5.30;99.90
10828;DHT22;5467;59.334;13.512;2022-12-22T06:20:07;5.30;99.90
10828;DHT22;5467;59.334;13.512;2022-12-22T06:22:35;5.30;99.90
10828;DHT22;5467;59.334;13.512;2022-12-22T06:25:03;5.30;99.90
10828;DHT22;5467;59.334;13.512;2022-12-22T06:27:30;5.30;99.90
10828;DHT22;5467;59.334;13.512;2022-12-22T06:29:57;5.30;99.90
10828;DHT22;5467;59.334;13.512;2022-12-22T06:32:24;5.30;99.90
10828;DHT22;5467;59.334;13.512;2022-12-22T06:34:51;5.30;99.90
10828;DHT22;5467;59.334;13.512;2022-12-22T06:37:19;5.40;99.90
10828;DHT22;5467;59.334;13.512;2022-12-22T06:39:47;5.40;99.90
10828;DHT22;5467;59.334;13.512;2022-12-22T06:42:14;5.40;99.90
10828;DHT22;5467;59.334;13.512;2022-12-22T06:44:58;5.40;99.90
10828;DHT22;5467;59.334;13.512;2022-12-22T06:47:26;5.40;99.90
10828;DHT22;5467;59.334;13.512;2022-12-22T06:49:53;5.40;99.90
10828;DHT22;5467;59.334;13.512;2022-12-22T06:52:20;5.40;99.90
10828;DHT22;5467;59.334;13.512;2022-12-22T06:54:49;5.50;99.90
10828;DHT22;5467;59.334;13.512;2022-12-22T06:57:16;5.40;99.90
10828;DHT22;5467;59.334;13.512;2022-12-22T06:59:43;5.50;99.90
10828;DHT22;5467;59.334;13.512;2022-12-22T07:02:10;5.50;99.90
10828;DHT22;5467;59.334;13.512;2022-12-22T07:04:38;5.50;99.90
10828;DHT22;5467;59.334;13.512;2022-12-22T07:07:05;5.50;99.90
10828;DHT22;5467;59.334;13.512;2022-12-22T07:09:32;5.50;99.90
10828;DHT22;5467;59.334;13.512;2022-12-22T07:12:01;5.50;99.90
10828;DHT22;5467;59.334;13.512;2022-12-22T07:14:28;5.50;99.90
10828;DHT22;5467;59.334;13.512;2022-12-22T07:16:55;5.40;99.90
10828;DHT22;5467;59.334;13.512;2022-12-22T07:19:22;5.40;99.90
10828;DHT22;5467;59.334;13.512;2022-12-22T07:21:49;5.40;99.90
10828;DHT22;5467;59.334;13.512;2022-12-22T07:24:16;5.50;99.90
10828;DHT22;5467;59.334;13.512;2022-12-22T07:26:48;5.50;99.90
10828;DHT22;5467;59.334;13.512;2022-12-22T07:29:17;5.50;99.90
10828;DHT22;5467;59.334;13.512;2022-12-22T07:31:44;5.50;99.90
10828;DHT22;5467;59.334;13.512;2022-12-22T07:34:11;5.40;99.90
10828;DHT22;5467;59.334;13.512;2022-12-22T07:36:38;5.40;99.90
10828;DHT22;5467;59.334;13.512;2022-12-22T07:39:05;5.40;99.90
10828;DHT22;5467;59.334;13.512;2022-12-22T07:41:33;5.40;99.90
10828;DHT22;5467;59.334;13.512;2022-12-22T07:44:19;5.40;99.90
10828;DHT22;5467;59.334;13.512;2022-12-22T07:46:46;5.40;99.90
10828;DHT22;5467;59.334;13.512;2022-12-22T07:49:13;5.40;99.90
10828;DHT22;5467;59.334;13.512;2022-12-22T07:51:57;5.30;99.90
10828;DHT22;5467;59.334;13.512;2022-12-22T07:54:25;5.40;99.90
10828;DHT22;5467;59.334;13.512;2022-12-22T07:56:53;5.40;99.90
10828;DHT22;5467;59.334;13.512;2022-12-22T07:59:22;5.40;99.90
10828;DHT22;5467;59.334;13.512;2022-12-22T08:01:49;5.40;99.90
10828;DHT22;5467;59.334;13.512;2022-12-22T08:04:17;5.40;99.90
10828;DHT22;5467;59.334;13.512;2022-12-22T08:06:44;5.40;99.90
10828;DHT22;5467;59.334;13.512;2022-12-22T08:09:13;5.40;99.90
10828;DHT22;5467;59.334;13.512;2022-12-22T08:11:41;5.40;99.90
10828;DHT22;5467;59.334;13.512;2022-12-22T08:14:08;5.40;99.90
10828;DHT22;5467;59.334;13.512;2022-12-22T08:16:37;5.40;99.90
10828;DHT22;5467;59.334;13.512;2022-12-22T08:19:04;5.40;99.90
10828;DHT22;5467;59.334;13.512;2022-12-22T08:21:31;5.40;99.90
10828;DHT22;5467;59.334;13.512;2022-12-22T08:23:58;5.40;99.90
10828;DHT22;5467;59.334;13.512;2022-12-22T08:26:28;5.40;99.90
10828;DHT22;5467;59.334;13.512;2022-12-22T08:29:02;5.40;99.90
10828;DHT22;5467;59.334;13.512;2022-12-22T08:31:32;5.40;99.90
10828;DHT22;5467;59.334;13.512;2022-12-22T08:34:03;5.40;99.90
10828;DHT22;5467;59.334;13.512;2022-12-22T08:36:34;5.40;99.90
10828;DHT22;5467;59.334;13.512;2022-12-22T08:39:05;5.30;99.90
10828;DHT22;5467;59.334;13.512;2022-12-22T08:41:33;5.40;99.90
10828;DHT22;5467;59.334;13.512;2022-12-22T08:44:17;5.40;99.90
10828;DHT22;5467;59.334;13.512;2022-12-22T08:46:44;5.40;99.90
10828;DHT22;5467;59.334;13.512;2022-12-22T08:49:13;5.40;99.90
10828;DHT22;5467;59.334;13.512;2022-12-22T08:51:40;5.40;99.90
10828;DHT22;5467;59.334;13.512;2022-12-22T08:54:08;5.40;99.90
10828;DHT22;5467;59.334;13.512;2022-12-22T08:56:35;5.50;99.90
10828;DHT22;5467;59.334;13.512;2022-12-22T08:59:03;5.50;99.90
10828;DHT22;5467;59.334;13.512;2022-12-22T09:01:33;5.60;99.90
10828;DHT22;5467;59.334;13.512;2022-12-22T09:04:01;5.60;99.90
10828;DHT22;5467;59.334;13.512;2022-12-22T09:06:30;5.60;99.90
10828;DHT22;5467;59.334;13.512;2022-12-22T09:08:59;5.60;99.90
10828;DHT22;5467;59.334;13.512;2022-12-22T09:11:27;5.60;99.90
10828;DHT22;5467;59.334;13.512;2022-12-22T09:13:56;5.70;99.90
10828;DHT22;5467;59.334;13.512;2022-12-22T09:16:24;5.70;99.90
10828;DHT22;5467;59.334;13.512;2022-12-22T09:18:52;5.70;99.90
10828;DHT22;5467;59.334;13.512;2022-12-22T09:21:20;5.70;99.90
10828;DHT22;5467;59.334;13.512;2022-12-22T09:23:49;5.80;99.90
10828;DHT22;5467;59.334;13.512;2022-12-22T09:26:18;5.70;99.90
10828;DHT22;5467;59.334;13.512;2022-12-22T09:28:45;5.70;99.90
10828;DHT22;5467;59.334;13.512;2022-12-22T09:31:14;5.70;99.90
10828;DHT22;5467;59.334;13.512;2022-12-22T09:33:41;5.80;99.90
10828;DHT22;5467;59.334;13.512;2022-12-22T09:36:10;5.80;99.90
10828;DHT22;5467;59.334;13.512;2022-12-22T09:38:39;5.70;99.90
10828;DHT22;5467;59.334;13.512;2022-12-22T09:41:09;5.70;99.90
10828;DHT22;5467;59.334;13.512;2022-12-22T09:43:41;5.70;99.90
10828;DHT22;5467;59.334;13.512;2022-12-22T09:46:13;5.70;99.90
10828;DHT22;5467;59.334;13.512;2022-12-22T09:48:41;5.80;99.90
10828;DHT22;5467;59.334;13.512;2022-12-22T09:51:11;5.80;99.90
10828;DHT22;5467;59.334;13.512;2022-12-22T09:53:39;5.80;99.90
10828;DHT22;5467;59.334;13.512;2022-12-22T09:56:11;5.80;99.90
10828;DHT22;5467;59.334;13.512;2022-12-22T09:58:39;5.80;99.90
10828;DHT22;5467;59.334;13.512;2022-12-22T10:01:22;5.90;99.90
10828;DHT22;5467;59.334;13.512;2022-12-22T10:03:55;5.90;99.90
10828;DHT22;5467;59.334;13.512;2022-12-22T10:06:28;5.80;99.90
10828;DHT22;5467;59.334;13.512;2022-12-22T10:09:02;5.80;99.90
10828;DHT22;5467;59.334;13.512;2022-12-22T10:11:31;5.80;99.90
10828;DHT22;5467;59.334;13.512;2022-12-22T10:13:59;5.80;99.90
10828;DHT22;5467;59.334;13.512;2022-12-22T10:16:27;5.80;99.90
10828;DHT22;5467;59.334;13.512;2022-12-22T10:18:58;5.80;99.90
10828;DHT22;5467;59.334;13.512;2022-12-22T10:21:25;5.80;99.90
10828;DHT22;5467;59.334;13.512;2022-12-22T10:23:52;5.90;99.90
10828;DHT22;5467;59.334;13.512;2022-12-22T10:26:22;5.90;99.90
10828;DHT22;5467;59.334;13.512;2022-12-22T10:28:54;5.90;99.90
10828;DHT22;5467;59.334;13.512;2022-12-22T10:31:25;5.90;99.90
10828;DHT22;5467;59.334;13.512;2022-12-22T10:33:55;5.90;99.90
10828;DHT22;5467;59.334;13.512;2022-12-22T10:36:25;5.80;99.90
10828;DHT22;5467;59.334;13.512;2022-12-22T10:38:59;5.90;99.90
10828;DHT22;5467;59.334;13.512;2022-12-22T10:41:29;5.90;99.90
10828;DHT22;5467;59.334;13.512;2022-12-22T10:44:01;5.90;99.90
10828;DHT22;5467;59.334;13.512;2022-12-22T10:46:33;6.00;99.90
10828;DHT22;5467;59.334;13.512;2022-12-22T10:49:11;5.90;99.90
10828;DHT22;5467;59.334;13.512;2022-12-22T10:51:39;5.90;99.90
10828;DHT22;5467;59.334;13.512;2022-12-22T10:54:07;5.90;99.90
10828;DHT22;5467;59.334;13.512;2022-12-22T10:56:34;5.90;99.90
10828;DHT22;5467;59.334;13.512;2022-12-22T10:59:17;5.90;99.90
10828;DHT22;5467;59.334;13.512;2022-12-22T11:01:45;5.90;99.90
10828;DHT22;5467;59.334;13.512;2022-12-22T11:04:20;6.00;99.90
10828;DHT22;5467;59.334;13.512;2022-12-22T11:06:48;6.00;99.90
10828;DHT22;5467;59.334;13.512;2022-12-22T11:09:15;6.00;99.90
10828;DHT22;5467;59.334;13.512;2022-12-22T11:11:46;6.10;99.90
10828;DHT22;5467;59.334;13.512;2022-12-22T11:14:26;6.00;99.90
10828;DHT22;5467;59.334;13.512;2022-12-22T11:17:00;6.00;99.90
10828;DHT22;5467;59.334;13.512;2022-12-22T11:19:41;6.00;99.90
10828;DHT22;5467;59.334;13.512;2022-12-22T11:22:22;6.00;99.90
10828;DHT22;5467;59.334;13.512;2022-12-22T11:25:03;6.00;99.90
10828;DHT22;5467;59.334;13.512;2022-12-22T11:27:36;6.00;99.90
10828;DHT22;5467;59.334;13.512;2022-12-22T11:30:11;6.00;99.90
10828;DHT22;5467;59.334;13.512;2022-12-22T11:32:55;6.00;99.90
10828;DHT22;5467;59.334;13.512;2022-12-22T11:35:33;6.00;99.90
10828;DHT22;5467;59.334;13.512;2022-12-22T11:38:12;6.00;99.90
10828;DHT22;5467;59.334;13.512;2022-12-22T11:40:45;6.00;99.90
10828;DHT22;5467;59.334;13.512;2022-12-22T11:43:22;6.00;99.90
10828;DHT22;5467;59.334;13.512;2022-12-22T11:46:11;6.00;99.90
10828;DHT22;5467;59.334;13.512;2022-12-22T11:48:57;6.10;99.90
10828;DHT22;5467;59.334;13.512;2022-12-22T11:51:42;6.10;99.90
10828;DHT22;5467;59.334;13.512;2022-12-22T11:57:26;6.00;99.90
10828;DHT22;5467;59.334;13.512;2022-12-22T12:00:04;6.10;99.90
10828;DHT22;5467;59.334;13.512;2022-12-22T12:08:33;6.00;99.90
10828;DHT22;5467;59.334;13.512;2022-12-22T12:11:10;6.00;99.90
10828;DHT22;5467;59.334;13.512;2022-12-22T12:13:49;6.10;99.90
10828;DHT22;5467;59.334;13.512;2022-12-22T12:16:30;6.10;99.90
10828;DHT22;5467;59.334;13.512;2022-12-22T12:21:56;6.00;99.90
10828;DHT22;5467;59.334;13.512;2022-12-22T12:24:36;6.00;99.90
10828;DHT22;5467;59.334;13.512;2022-12-22T12:27:12;6.00;99.90
10828;DHT22;5467;59.334;13.512;2022-12-22T12:29:59;6.10;99.90
10828;DHT22;5467;59.334;13.512;2022-12-22T12:32:33;6.10;99.90
10828;DHT22;5467;59.334;13.512;2022-12-22T12:35:06;6.10;99.90
10828;DHT22;5467;59.334;13.512;2022-12-22T12:37:40;6.10;99.90
10828;DHT22;5467;59.334;13.512;2022-12-22T12:40:24;6.10;99.90
10828;DHT22;5467;59.334;13.512;2022-12-22T12:42:53;6.10;99.90
10828;DHT22;5467;59.334;13.512;2022-12-22T12:45:35;6.10;99.90
10828;DHT22;5467;59.334;13.512;2022-12-22T12:48:39;6.00;99.90
10828;DHT22;5467;59.334;13.512;2022-12-22T12:51:47;5.90;99.90
10828;DHT22;5467;59.334;13.512;2022-12-22T12:54:37;5.90;99.90
10828;DHT22;5467;59.334;13.512;2022-12-22T12:57:24;5.90;99.90
10828;DHT22;5467;59.334;13.512;2022-12-22T12:59:54;5.90;99.90
10828;DHT22;5467;59.334;13.512;2022-12-22T13:02:36;5.80;99.90
10828;DHT22;5467;59.334;13.512;2022-12-22T13:08:28;5.90;99.90
10828;DHT22;5467;59.334;13.512;2022-12-22T13:11:33;6.00;99.90
10828;DHT22;5467;59.334;13.512;2022-12-22T13:14:01;6.00;99.90
10828;DHT22;5467;59.334;13.512;2022-12-22T13:16:34;6.00;99.90
10828;DHT22;5467;59.334;13.512;2022-12-22T13:19:14;6.00;99.90
10828;DHT22;5467;59.334;13.512;2022-12-22T13:21:44;6.00;99.90
10828;DHT22;5467;59.334;13.512;2022-12-22T13:24:29;6.00;99.90
10828;DHT22;5467;59.334;13.512;2022-12-22T13:27:03;6.00;99.90
10828;DHT22;5467;59.334;13.512;2022-12-22T13:29:40;6.10;99.90
10828;DHT22;5467;59.334;13.512;2022-12-22T13:32:19;6.10;99.90
10828;DHT22;5467;59.334;13.512;2022-12-22T13:34:53;6.10;99.90
10828;DHT22;5467;59.334;13.512;2022-12-22T13:37:25;6.10;99.90
10828;DHT22;5467;59.334;13.512;2022-12-22T13:40:08;6.10;99.90
10828;DHT22;5467;59.334;13.512;2022-12-22T13:42:39;6.00;99.90
10828;DHT22;5467;59.334;13.512;2022-12-22T13:45:17;6.00;99.90
10828;DHT22;5467;59.334;13.512;2022-12-22T13:47:46;6.00;99.90
10828;DHT22;5467;59.334;13.512;2022-12-22T13:50:18;6.00;99.90
10828;DHT22;5467;59.334;13.512;2022-12-22T13:52:47;6.00;99.90
10828;DHT22;5467;59.334;13.512;2022-12-22T13:55:17;6.00;99.90
10828;DHT22;5467;59.334;13.512;2022-12-22T13:57:46;6.00;99.90
10828;DHT22;5467;59.334;13.512;2022-12-22T14:00:19;6.00;99.90
10828;DHT22;5467;59.334;13.512;2022-12-22T14:02:46;6.00;99.90
10828;DHT22;5467;59.334;13.512;2022-12-22T14:05:14;6.00;99.90
10828;DHT22;5467;59.334;13.512;2022-12-22T14:07:56;6.00;99.90
10828;DHT22;5467;59.334;13.512;2022-12-22T14:10:30;6.00;99.90
10828;DHT22;5467;59.334;13.512;2022-12-22T14:13:01;6.00;99.90
10828;DHT22;5467;59.334;13.512;2022-12-22T14:15:31;6.00;99.90
10828;DHT22;5467;59.334;13.512;2022-12-22T14:17:59;6.00;99.90
10828;DHT22;5467;59.334;13.512;2022-12-22T14:20:28;6.00;99.90
10828;DHT22;5467;59.334;13.512;2022-12-22T14:23:01;6.10;99.90
10828;DHT22;5467;59.334;13.512;2022-12-22T14:25:31;6.00;99.90
10828;DHT22;5467;59.334;13.512;2022-12-22T14:28:01;6.00;99.90
10828;DHT22;5467;59.334;13.512;2022-12-22T14:30:34;6.00;99.90
10828;DHT22;5467;59.334;13.512;2022-12-22T14:33:25;6.00;99.90
10828;DHT22;5467;59.334;13.512;2022-12-22T14:36:03;6.00;99.90
10828;DHT22;5467;59.334;13.512;2022-12-22T14:38:37;5.90;99.90
10828;DHT22;5467;59.334;13.512;2022-12-22T14:41:09;6.00;99.90
10828;DHT22;5467;59.334;13.512;2022-12-22T14:43:59;5.90;99.90
10828;DHT22;5467;59.334;13.512;2022-12-22T14:46:27;5.90;99.90
10828;DHT22;5467;59.334;13.512;2022-12-22T14:48:54;5.90;99.90
10828;DHT22;5467;59.334;13.512;2022-12-22T14:51:24;5.90;99.90
10828;DHT22;5467;59.334;13.512;2022-12-22T14:53:53;5.90;99.90
10828;DHT22;5467;59.334;13.512;2022-12-22T14:56:21;5.80;99.90
10828;DHT22;5467;59.334;13.512;2022-12-22T14:58:49;5.80;99.90
10828;DHT22;5467;59.334;13.512;2022-12-22T15:01:20;5.80;99.90
10828;DHT22;5467;59.334;13.512;2022-12-22T15:04:14;5.80;99.90
10828;DHT22;5467;59.334;13.512;2022-12-22T15:06:43;5.80;99.90
10828;DHT22;5467;59.334;13.512;2022-12-22T15:09:27;5.80;99.90
10828;DHT22;5467;59.334;13.512;2022-12-22T15:12:02;5.70;99.90
10828;DHT22;5467;59.334;13.512;2022-12-22T15:14:33;5.80;99.90
10828;DHT22;5467;59.334;13.512;2022-12-22T15:17:02;5.90;99.90
10828;DHT22;5467;59.334;13.512;2022-12-22T15:19:32;5.90;99.90
10828;DHT22;5467;59.334;13.512;2022-12-22T15:21:59;5.90;99.90
10828;DHT22;5467;59.334;13.512;2022-12-22T15:24:26;5.90;99.90
10828;DHT22;5467;59.334;13.512;2022-12-22T15:26:54;5.90;99.90
10828;DHT22;5467;59.334;13.512;2022-12-22T15:29:22;5.80;99.90
10828;DHT22;5467;59.334;13.512;2022-12-22T15:31:49;5.80;99.90
10828;DHT22;5467;59.334;13.512;2022-12-22T15:34:21;5.80;99.90
10828;DHT22;5467;59.334;13.512;2022-12-22T15:36:49;5.80;99.90
10828;DHT22;5467;59.334;13.512;2022-12-22T15:39:18;5.80;99.90
10828;DHT22;5467;59.334;13.512;2022-12-22T15:41:45;5.80;99.90
10828;DHT22;5467;59.334;13.512;2022-12-22T15:44:13;5.80;99.90
10828;DHT22;5467;59.334;13.512;2022-12-22T15:46:42;5.80;99.90
10828;DHT22;5467;59.334;13.512;2022-12-22T15:49:13;5.80;99.90
10828;DHT22;5467;59.334;13.512;2022-12-22T15:51:42;5.90;99.90
10828;DHT22;5467;59.334;13.512;2022-12-22T15:54:13;5.90;99.90
10828;DHT22;5467;59.334;13.512;2022-12-22T15:56:41;5.90;99.90
10828;DHT22;5467;59.334;13.512;2022-12-22T15:59:12;5.80;99.90
10828;DHT22;5467;59.334;13.512;2022-12-22T16:01:40;5.80;99.90
10828;DHT22;5467;59.334;13.512;2022-12-22T16:04:07;5.80;99.90
10828;DHT22;5467;59.334;13.512;2022-12-22T16:06:35;5.90;99.90
10828;DHT22;5467;59.334;13.512;2022-12-22T16:09:06;5.90;99.90
10828;DHT22;5467;59.334;13.512;2022-12-22T16:11:37;5.80;99.90
10828;DHT22;5467;59.334;13.512;2022-12-22T16:14:04;5.90;99.90
10828;DHT22;5467;59.334;13.512;2022-12-22T16:16:31;5.90;99.90
10828;DHT22;5467;59.334;13.512;2022-12-22T16:18:58;5.90;99.90
10828;DHT22;5467;59.334;13.512;2022-12-22T16:21:29;5.90;99.90
10828;DHT22;5467;59.334;13.512;2022-12-22T16:23:57;6.00;99.90
10828;DHT22;5467;59.334;13.512;2022-12-22T16:26:27;5.90;99.90
10828;DHT22;5467;59.334;13.512;2022-12-22T16:28:54;5.90;99.90
10828;DHT22;5467;59.334;13.512;2022-12-22T16:31:24;5.90;99.90
10828;DHT22;5467;59.334;13.512;2022-12-22T16:33:51;5.90;99.90
10828;DHT22;5467;59.334;13.512;2022-12-22T16:36:18;5.90;99.90
10828;DHT22;5467;59.334;13.512;2022-12-22T16:38:46;5.90;99.90
10828;DHT22;5467;59.334;13.512;2022-12-22T16:41:22;6.00;99.90
10828;DHT22;5467;59.334;13.512;2022-12-22T16:43:52;6.00;99.90